Rosa Maersk — OVST2 — position and weather

sailwx.info

Track history (hours):
 
Tides and Currents Weather Stations Pressure Air Temp Water Temp Dewpoint Dewpoint Depression Visibility Wind Speed Wind Dir Waves Ship Positions

Rosa Maersk

Last reported at 2014-Dec-18 06:18 UTC. Time now 2014-Dec-19 00:35 UTC.
Position N 37°52' E 023°16'.

Length 172 m; draft 10.8 m.

Type: Ship. MMSI: 220288000.

Date/timePositionNaut miles runAvg speedWind from/ knotsBaromVisibWave heightAir tempDewpointWater temp
2014-Dec-18 06:18N 37°52' E 023°16'912.1
2014-Dec-18 05:33N 37°50' E 023°27'1010.5
2014-Dec-18 04:33N 37°48' E 023°40'1212.3
2014-Dec-18 03:33N 37°37' E 023°47'6311.9
2014-Dec-17 22:13N 36°37' E 023°19'43311.5
2014-Dec-16 08:27N 36°33' E 014°20'1112.7
2014-Dec-16 07:33N 36°38' E 014°07'1312.9
2014-Dec-16 06:33N 36°42' E 013°52'51012.7
2014-Dec-14 14:17N 39°46' E 003°46'912.6
2014-Dec-14 13:33N 39°53' E 003°38'1512.4
2014-Dec-14 12:21N 40°03' E 003°24'1112.4
2014-Dec-14 11:28N 40°09' E 003°12'1112.3
2014-Dec-14 10:33N 40°15' E 002°59'1212.1
2014-Dec-14 09:33N 40°21' E 002°46'1212.3
2014-Dec-14 08:33N 40°27' E 002°32'1312.5
2014-Dec-14 07:33N 40°34' E 002°18'1312.9
2014-Dec-14 06:33N 40°41' E 002°03'1313.0
2014-Dec-14 05:34N 40°47' E 001°49'1312.5
2014-Dec-14 04:33N 40°54' E 001°34'1413.0
2014-Dec-14 03:29N 41°01' E 001°19'  
2014-Dec-08 11:23N 41°04' E 001°17'  
Track history (hours):
 
Tides and Currents Weather Stations Pressure Air Temp Water Temp Dewpoint Dewpoint Depression Visibility Wind Speed Wind Dir Waves Ship Positions

Rosa Maersk

Last reported at 2014-Dec-18 06:18 UTC. Time now 2014-Dec-19 00:35 UTC.
Position N 37°52' E 023°16'.

Length 172 m; draft 10.8 m.

Type: Ship. MMSI: 220288000.

Date/timePositionNaut miles runAvg speedWind from/ knotsBaromVisibWave heightAir tempDewpointWater temp
2014-Dec-18 06:18N 37°52' E 023°16'912.1
2014-Dec-18 05:33N 37°50' E 023°27'1010.5
2014-Dec-18 04:33N 37°48' E 023°40'1212.3
2014-Dec-18 03:33N 37°37' E 023°47'6311.9
2014-Dec-17 22:13N 36°37' E 023°19'43311.5
2014-Dec-16 08:27N 36°33' E 014°20'1112.7
2014-Dec-16 07:33N 36°38' E 014°07'1312.9
2014-Dec-16 06:33N 36°42' E 013°52'51012.7
2014-Dec-14 14:17N 39°46' E 003°46'912.6
2014-Dec-14 13:33N 39°53' E 003°38'1512.4
2014-Dec-14 12:21N 40°03' E 003°24'1112.4
2014-Dec-14 11:28N 40°09' E 003°12'1112.3
2014-Dec-14 10:33N 40°15' E 002°59'1212.1
2014-Dec-14 09:33N 40°21' E 002°46'1212.3
2014-Dec-14 08:33N 40°27' E 002°32'1312.5
2014-Dec-14 07:33N 40°34' E 002°18'1312.9
2014-Dec-14 06:33N 40°41' E 002°03'1313.0
2014-Dec-14 05:34N 40°47' E 001°49'1312.5
2014-Dec-14 04:33N 40°54' E 001°34'1413.0
2014-Dec-14 03:29N 41°01' E 001°19'  
2014-Dec-08 11:23N 41°04' E 001°17'  

Dump ship's entire track history